地図

経路データ

SID SEASON NUMBER BASIN SUBBASIN NAME ISO_TIME NATURE LAT LON WMO_WIND WMO_PRES WMO_AGENCY TRACK_TYPE DIST2LAND LANDFALL IFLAG USA_AGENCY USA_ATCF_ID USA_LAT USA_LON USA_RECORD USA_STATUS USA_WIND USA_PRES USA_SSHS USA_R34_NE USA_R34_SE USA_R34_SW USA_R34_NW USA_R50_NE USA_R50_SE USA_R50_SW USA_R50_NW USA_R64_NE USA_R64_SE USA_R64_SW USA_R64_NW USA_POCI USA_ROCI USA_RMW USA_EYE TOKYO_LAT TOKYO_LON TOKYO_GRADE TOKYO_WIND TOKYO_PRES TOKYO_R50_DIR TOKYO_R50_LONG TOKYO_R50_SHORT TOKYO_R30_DIR TOKYO_R30_LONG TOKYO_R30_SHORT TOKYO_LAND CMA_LAT CMA_LON CMA_CAT CMA_WIND CMA_PRES HKO_LAT HKO_LON HKO_CAT HKO_WIND HKO_PRES NEWDELHI_LAT NEWDELHI_LON NEWDELHI_GRADE NEWDELHI_WIND NEWDELHI_PRES NEWDELHI_CI NEWDELHI_DP NEWDELHI_POCI REUNION_LAT REUNION_LON REUNION_TYPE REUNION_WIND REUNION_PRES REUNION_TNUM REUNION_CI REUNION_RMW REUNION_R34_NE REUNION_R34_SE REUNION_R34_SW REUNION_R34_NW REUNION_R50_NE REUNION_R50_SE REUNION_R50_SW REUNION_R50_NW REUNION_R64_NE REUNION_R64_SE REUNION_R64_SW REUNION_R64_NW BOM_LAT BOM_LON BOM_TYPE BOM_WIND BOM_PRES BOM_TNUM BOM_CI BOM_RMW BOM_R34_NE BOM_R34_SE BOM_R34_SW BOM_R34_NW BOM_R50_NE BOM_R50_SE BOM_R50_SW BOM_R50_NW BOM_R64_NE BOM_R64_SE BOM_R64_SW BOM_R64_NW BOM_ROCI BOM_POCI BOM_EYE BOM_POS_METHOD BOM_PRES_METHOD NADI_LAT NADI_LON NADI_CAT NADI_WIND NADI_PRES WELLINGTON_LAT WELLINGTON_LON WELLINGTON_WIND WELLINGTON_PRES DS824_LAT DS824_LON DS824_STAGE DS824_WIND DS824_PRES TD9636_LAT TD9636_LON TD9636_STAGE TD9636_WIND TD9636_PRES TD9635_LAT TD9635_LON TD9635_WIND TD9635_PRES TD9635_ROCI NEUMANN_LAT NEUMANN_LON NEUMANN_CLASS NEUMANN_WIND NEUMANN_PRES MLC_LAT MLC_LON MLC_CLASS MLC_WIND MLC_PRES USA_GUST BOM_GUST BOM_GUST_PER REUNION_GUST REUNION_GUST_PER USA_SEAHGT USA_SEARAD_NE USA_SEARAD_SE USA_SEARAD_SW USA_SEARAD_NW STORM_SPEED STORM_DIR
1992265N06155 1992 92 WP MM VAL 1992-09-21 06:00:00 TS 6.50000 155.000 spur-merge 1127 1127 __O___________ -1 6.50000 155.000 0 17 1006 11 86
1992265N06155 1992 92 WP MM VAL 1992-09-21 09:00:00 TS 6.54270 155.568 spur-merge 1155 1155 __P___________ -1 6.54270 155.568 0 17 1006 10 79
1992265N06155 1992 92 WP MM VAL 1992-09-21 12:00:00 TS 6.70000 156.000 spur-merge 1196 1196 __O___________ -1 6.70000 156.000 0 17 1006 8 52
1992265N06155 1992 92 WP MM VAL 1992-09-21 15:00:00 TS 7.04742 156.210 spur-merge 1236 1236 __P___________ -1 7.04742 156.210 0 17 1006 9 20
1992265N06155 1992 92 WP MM VAL 1992-09-21 18:00:00 TS 7.50000 156.300 spur-merge 1290 1290 __O___________ -1 7.50000 156.300 0 17 1006 9 17
1992265N06155 1992 92 WP MM VAL 1992-09-21 21:00:00 TS 7.92745 156.482 spur-merge 1340 1340 __P___________ -1 7.92745 156.482 0 17 1006 9 12
1992265N06155 1992 92 WP MM VAL 1992-09-22 00:00:00 TS 8.40000 156.500 spur-merge 1390 1390 __O___________ -1 8.40000 156.500 0 17 1006 11 345
1992265N06155 1992 92 WP MM VAL 1992-09-22 03:00:00 TS 8.97997 156.205 spur-merge 1436 1436 __P___________ -1 8.97997 156.205 0 18 1005 14 324
1992265N06155 1992 92 WP MM VAL 1992-09-22 06:00:00 TS 9.50000 155.700 spur-merge 1467 1463 __O___________ -1 9.50000 155.700 0 19 1004 14 305
1992265N06155 1992 92 WP MM VAL 1992-09-22 09:00:00 TS 9.78785 155.025 spur-merge 1472 1465 __P___________ -1 9.78785 155.025 0 19 1004 13 293
1992265N06155 1992 92 WP MM VAL 1992-09-22 12:00:00 TS 10.0000 154.500 spur-merge 1477 1477 __O___________ -1 10.0000 154.500 0 19 1004 7 314
1992265N06155 1992 92 WP MM VAL 1992-09-22 15:00:00 TS 10.3073 154.487 spur-merge 1510 1510 __P___________ -1 10.3073 154.487 0 19 1004 6 18
1992265N06155 1992 92 WP MM VAL 1992-09-22 18:00:00 TS 10.6000 154.700 spur-merge 1548 1548 __O___________ -1 10.6000 154.700 0 19 1004 6 35
1992265N06155 1992 92 WP MM VAL 1992-09-22 21:00:00 TS 10.7700 154.820 spur-merge 1573 1573 __P___________ -1 10.7700 154.820 0 19 1004 5 36
1992265N06155 1992 92 WP MM VAL 1992-09-23 00:00:00 TS 11.0000 155.000 spur-merge 1600 1600 __O___________ -1 11.0000 155.000 0 19 1004 8 35
1992265N06155 1992 92 WP MM VAL 1992-09-23 03:00:00 TS 11.4551 155.307 spur-merge 1663 1663 __P___________ -1 11.4551 155.307 0 19 1004 12 30
1992265N06155 1992 92 WP MM VAL 1992-09-23 06:00:00 TS 12.0000 155.600 spur-merge 1727 1727 __O___________ -1 12.0000 155.600 0 19 1004 12 22
1992265N06155 1992 92 WP MM VAL 1992-09-23 09:00:00 TS 12.5224 155.738 spur-merge 1783 1783 __P___________ -1 12.5224 155.738 0 21 1003 10 11
1992265N06155 1992 92 WP MM VAL 1992-09-23 12:00:00 TS 13.0000 155.800 spur-merge 1840 1840 __O___________ -1 13.0000 155.800 1 23 1002 8 7
1992265N06155 1992 92 WP MM VAL 1992-09-23 15:00:00 TS 13.3500 155.850 spur-merge 1875 1875 __P___________ -1 13.3500 155.850 1 23 1002 7 8
1992265N06155 1992 92 WP MM VAL 1992-09-23 18:00:00 TS 13.7000 155.900 spur-merge 1918 1918 __O___________ -1 13.7000 155.900 1 23 1002 8 13
1992265N06155 1992 92 WP MM VAL 1992-09-23 21:00:00 TS 14.1175 156.030 spur-merge 1964 1964 __P___________ -1 14.1175 156.030 1 23 1002 10 11
1992265N06155 1992 92 WP MM VAL 1992-09-24 00:00:00 TS 14.7000 156.100 spur-merge 2031 2031 __O___________ -1 14.7000 156.100 1 23 1002 15 358
1992265N06155 1992 92 WP MM VAL 1992-09-24 03:00:00 TS 15.5926 155.973 spur-merge 2125 2125 __P___________ -1 15.5926 155.973 1 26 1001 18 351
1992265N06155 1992 92 WP MM VAL 1992-09-24 06:00:00 TS 16.5000 155.800 spur-merge 2217 2217 __O___________ -1 16.5000 155.800 1 29 1000 16 352
1992265N06155 1992 92 WP MM VAL 1992-09-24 09:00:00 TS 17.1174 155.742 spur-merge 2279 2279 __P___________ -1 17.1174 155.742 1 29 1000 11 355
1992265N06155 1992 92 WP MM VAL 1992-09-24 12:00:00 TS 17.6000 155.700 spur-merge 2334 2334 __O___________ -1 17.6000 155.700 1 29 1000 10 354
1992265N06155 1992 92 WP MM VAL 1992-09-24 15:00:00 TS 18.0574 155.630 spur-merge 2386 2384 __P___________ -1 18.0574 155.630 1 29 999 9 348
1992265N06155 1992 92 WP MM VAL 1992-09-24 18:00:00 TS 18.5000 155.500 spur-merge 2384 2329 __O___________ -1 18.5000 155.500 1 29 998 10 336
1992265N06155 1992 92 WP MM VAL 1992-09-24 21:00:00 TS 18.9776 155.198 spur-merge 2320 2263 __P___________ -1 18.9776 155.198 1 29 998 11 335
1992265N06155 1992 92 WP MM VAL 1992-09-25 00:00:00 TS 19.5000 155.000 spur-merge 2263 2230 __O___________ -1 19.5000 155.000 1 29 998 11 0
1992265N06155 1992 92 WP MM VAL 1992-09-25 03:00:00 TS 20.0477 155.226 spur-merge 2230 2188 __P___________ -1 20.0827 155.141 1 33 996 13 21
1992265N06155 1992 92 WP MM VAL 1992-09-25 06:00:00 TS 20.7000 155.500 spur-merge 2188 __O___________ -1 20.7000 155.500 2 38 995 14 22

デジタル台風データ・検索

IBTrACS Databaseについて

本データベースは、米国NOAAが公開する1842年以降の世界の熱帯低気圧のベストトラックデータアーカイブInternational Best Track Archive for Climate Stewardship (IBTrACS)を、ウェブで閲覧しやすい形式に変換したものです。

最終更新日:2021-12-03